Time;durP1;ratioP1;P1;durP2;ratioP2;P2;SDS_P1;SDS_P2;PMS_P1;PMS_P2;Temp;Humidity;BMP_temperature;BMP_pressure;BME280_temperature;BME280_humidity;BME280_pressure;Samples;Min_cycle;Max_cycle;Signal;HPM_P1;HPM_P2
2021/03/09 00:02:10;;;;;;;32.58;21.80;;;8.70;99.90;;;;;;5019330;28;20033;-59
2021/03/09 00:04:36;;;;;;;33.95;20.85;;;8.70;99.90;;;;;;5024436;28;20042;-59
2021/03/09 00:07:01;;;;;;;36.15;21.50;;;8.50;99.90;;;;;;5019653;28;20036;-60
2021/03/09 00:09:27;;;;;;;37.05;22.35;;;8.60;99.90;;;;;;5015184;28;20601;-59
2021/03/09 00:11:53;;;;;;;38.35;23.38;;;8.60;99.90;;;;;;5020623;28;20025;-60
2021/03/09 00:14:18;;;;;;;37.53;22.10;;;8.60;99.90;;;;;;5016400;28;20026;-59
2021/03/09 00:16:44;;;;;;;37.55;22.60;;;8.60;99.90;;;;;;5019620;28;20108;-61
2021/03/09 00:19:09;;;;;;;33.90;21.35;;;8.60;99.90;;;;;;5017381;28;20036;-59
2021/03/09 00:21:35;;;;;;;35.20;21.35;;;8.50;99.90;;;;;;5018167;28;20087;-60
2021/03/09 00:24:01;;;;;;;40.53;21.92;;;8.50;99.90;;;;;;5018431;28;20038;-60
2021/03/09 00:26:27;;;;;;;40.20;22.98;;;8.60;99.90;;;;;;5017194;28;20040;-60
2021/03/09 00:28:52;;;;;;;40.22;22.65;;;8.50;99.90;;;;;;5019534;28;20018;-59
2021/03/09 00:31:18;;;;;;;37.90;23.58;;;8.50;99.90;;;;;;5015681;28;20522;-60
2021/03/09 00:33:44;;;;;;;35.20;22.33;;;8.40;99.90;;;;;;5020801;28;20490;-60
2021/03/09 00:36:10;;;;;;;36.78;22.90;;;8.50;99.90;;;;;;5024731;28;20026;-60
2021/03/09 00:38:35;;;;;;;32.45;22.40;;;8.60;99.90;;;;;;5021248;28;20030;-60
2021/03/09 00:41:01;;;;;;;37.50;22.65;;;8.50;99.90;;;;;;5015142;28;20025;-59
2021/03/09 00:43:27;;;;;;;28.60;21.73;;;8.50;99.90;;;;;;5026096;28;20474;-60
2021/03/09 00:45:52;;;;;;;37.17;22.83;;;8.50;99.90;;;;;;5029024;28;20036;-60
2021/03/09 00:48:18;;;;;;;35.72;22.67;;;8.50;99.90;;;;;;5021166;28;20021;-61
2021/03/09 00:50:44;;;;;;;34.20;22.48;;;8.50;99.90;;;;;;5014727;28;20045;-63
2021/03/09 00:53:09;;;;;;;38.53;22.65;;;8.30;99.90;;;;;;5020936;28;20077;-60
2021/03/09 00:55:35;;;;;;;35.13;23.38;;;8.50;99.90;;;;;;5013779;28;20108;-59
2021/03/09 00:58:01;;;;;;;38.17;23.73;;;8.20;99.90;;;;;;5021573;28;20030;-60
2021/03/09 01:00:28;;;;;;;39.08;23.65;;;8.50;99.90;;;;;;5015407;28;20021;-61
2021/03/09 01:02:54;;;;;;;34.03;23.42;;;8.30;99.90;;;;;;5022609;28;20026;-59
2021/03/09 01:05:22;;;;;;;34.25;22.17;;;8.30;99.90;;;;;;5012156;28;20111;-59
2021/03/09 01:07:47;;;;;;;40.40;24.08;;;8.40;99.90;;;;;;5022720;28;20045;-59
2021/03/09 01:10:15;;;;;;;43.58;22.83;;;8.30;99.90;;;;;;5011976;28;20594;-60
2021/03/09 01:12:40;;;;;;;40.15;24.45;;;8.30;99.90;;;;;;5020228;28;20037;-59
2021/03/09 01:15:07;;;;;;;41.88;23.20;;;8.30;99.90;;;;;;5031791;28;20080;-63
2021/03/09 01:17:33;;;;;;;35.58;23.27;;;8.30;99.90;;;;;;5023316;28;20490;-59
2021/03/09 01:19:59;;;;;;;32.90;21.42;;;8.20;99.90;;;;;;5011030;28;20563;-59
2021/03/09 01:22:25;;;;;;;38.38;23.67;;;8.20;99.90;;;;;;5022753;28;20100;-60
2021/03/09 01:24:50;;;;;;;42.03;24.00;;;8.30;99.90;;;;;;5011755;28;20041;-60
2021/03/09 01:27:16;;;;;;;39.10;22.27;;;8.20;99.90;;;;;;5022588;28;20109;-59
2021/03/09 01:29:42;;;;;;;38.53;23.60;;;8.10;99.90;;;;;;5012028;28;20045;-59
2021/03/09 01:32:08;;;;;;;39.10;24.35;;;8.20;99.90;;;;;;5021079;28;20029;-60
2021/03/09 01:34:35;;;;;;;41.67;25.02;;;8.00;99.90;;;;;;5017705;28;20026;-60
2021/03/09 01:37:00;;;;;;;36.03;23.58;;;8.10;99.90;;;;;;5024839;28;20040;-60
2021/03/09 01:39:26;;;;;;;39.88;23.05;;;8.00;99.90;;;;;;5013998;28;20559;-60
2021/03/09 01:41:52;;;;;;;35.47;23.15;;;8.20;99.90;;;;;;5018856;28;20029;-60
2021/03/09 01:44:17;;;;;;;41.97;23.80;;;8.10;99.90;;;;;;5026492;28;20041;-60
2021/03/09 01:46:45;;;;;;;44.95;25.40;;;8.10;99.90;;;;;;5024739;28;20021;-60
2021/03/09 01:49:14;;;;;;;40.63;25.00;;;8.00;99.90;;;;;;5016005;28;20414;-60
2021/03/09 01:51:40;;;;;;;41.78;25.50;;;7.80;99.90;;;;;;5016847;28;20029;-60
2021/03/09 01:54:06;;;;;;;36.90;24.90;;;7.80;99.90;;;;;;5016171;28;20040;-60
2021/03/09 01:56:32;;;;;;;43.05;24.42;;;7.80;99.90;;;;;;5015776;28;20104;-60
2021/03/09 01:59:00;;;;;;;40.75;25.13;;;7.90;99.90;;;;;;5017389;28;20389;-60
2021/03/09 02:01:26;;;;;;;38.72;24.27;;;7.90;99.90;;;;;;5014888;28;20018;-60
2021/03/09 02:03:52;;;;;;;42.38;26.08;;;7.70;99.90;;;;;;5017790;28;20591;-60
2021/03/09 02:06:18;;;;;;;37.92;25.17;;;7.70;99.90;;;;;;5013524;28;20390;-60
2021/03/09 02:08:45;;;;;;;40.30;25.95;;;7.70;99.90;;;;;;5025704;28;20029;-60
2021/03/09 02:11:33;;;;;;;43.15;25.80;;;7.60;99.90;;;;;;5013301;28;20034;-60
2021/03/09 02:14:23;;;;;;;42.22;25.15;;;7.60;99.90;;;;;;5024247;28;20098;-60
2021/03/09 02:17:05;;;;;;;41.03;25.75;;;7.60;99.90;;;;;;5024216;28;20026;-60
2021/03/09 02:20:01;;;;;;;37.33;25.80;;;7.50;99.90;;;;;;5012881;28;20406;-62
2021/03/09 02:22:52;;;;;;;43.20;25.42;;;7.50;99.90;;;;;;5021522;28;20044;-60
2021/03/09 02:25:56;;;;;;;42.00;27.05;;;7.40;99.90;;;;;;5010772;28;20038;-60
2021/03/09 02:28:38;;;;;;;38.08;25.00;;;7.30;99.90;;;;;;5019200;28;20022;-60
2021/03/09 02:31:06;;;;;;;46.65;26.13;;;7.50;99.90;;;;;;5012768;28;20065;-60
2021/03/09 02:33:46;;;;;;;45.15;25.58;;;7.30;99.90;;;;;;5019186;28;20030;-60
2021/03/09 02:36:19;;;;;;;45.28;27.55;;;7.40;99.90;;;;;;5022823;28;20021;-60
2021/03/09 02:38:51;;;;;;;40.83;26.95;;;7.40;99.90;;;;;;5021826;28;20029;-60
2021/03/09 02:41:19;;;;;;;42.30;27.55;;;7.30;99.90;;;;;;5023410;28;20557;-60
2021/03/09 02:43:49;;;;;;;42.72;27.45;;;7.20;99.90;;;;;;5026000;28;20026;-60
2021/03/09 02:46:20;;;;;;;41.30;26.27;;;7.20;99.90;;;;;;5024032;28;20036;-60
2021/03/09 02:48:47;;;;;;;41.75;25.98;;;7.20;99.90;;;;;;5021848;28;20025;-60
2021/03/09 02:51:14;;;;;;;44.00;27.48;;;7.10;99.90;;;;;;5023575;28;20586;-60
2021/03/09 02:53:55;;;;;;;43.85;27.67;;;7.20;99.90;;;;;;5018812;28;20038;-61
2021/03/09 02:56:23;;;;;;;44.65;27.60;;;7.10;99.90;;;;;;5013129;28;20080;-60
2021/03/09 02:58:52;;;;;;;41.97;27.08;;;7.20;99.90;;;;;;5017724;28;20033;-61
2021/03/09 03:01:20;;;;;;;37.22;26.23;;;7.20;99.90;;;;;;5012694;28;20030;-60
2021/03/09 03:03:47;;;;;;;49.42;27.42;;;7.20;99.90;;;;;;5018139;28;20026;-60
2021/03/09 03:06:15;;;;;;;47.40;27.50;;;7.10;99.90;;;;;;5012271;28;20034;-60
2021/03/09 03:08:43;;;;;;;39.72;25.58;;;7.10;99.90;;;;;;5018762;28;20026;-60
2021/03/09 03:11:09;;;;;;;43.95;26.15;;;6.90;99.90;;;;;;5012475;28;20057;-60
2021/03/09 03:13:36;;;;;;;41.17;26.83;;;7.00;99.90;;;;;;5018506;28;20036;-60
2021/03/09 03:16:03;;;;;;;42.20;26.05;;;7.10;99.90;;;;;;5012406;28;20084;-60
2021/03/09 03:18:38;;;;;;;41.33;27.17;;;7.00;99.90;;;;;;5018827;28;20033;-60
2021/03/09 03:21:05;;;;;;;44.25;26.42;;;7.00;99.90;;;;;;5012145;28;20037;-60
2021/03/09 03:23:32;;;;;;;36.33;24.63;;;7.20;99.90;;;;;;5018397;28;20375;-60
2021/03/09 03:26:02;;;;;;;38.53;25.17;;;7.00;99.90;;;;;;5012211;28;20033;-60
2021/03/09 03:28:27;;;;;;;41.65;24.40;;;7.00;99.90;;;;;;5018423;28;20018;-61
2021/03/09 03:30:53;;;;;;;42.10;25.23;;;7.00;99.90;;;;;;5012228;28;20478;-60
2021/03/09 03:33:19;;;;;;;41.15;24.88;;;7.10;99.90;;;;;;5018237;28;20050;-59
2021/03/09 03:35:45;;;;;;;44.10;25.80;;;7.10;99.90;;;;;;5022060;28;20486;-60
2021/03/09 03:38:15;;;;;;;44.22;26.02;;;7.20;99.90;;;;;;5018321;28;20093;-60
2021/03/09 03:40:42;;;;;;;36.95;25.17;;;7.00;99.90;;;;;;5011233;28;20425;-60
2021/03/09 03:43:08;;;;;;;42.42;25.83;;;7.00;99.90;;;;;;5023900;28;20034;-60
2021/03/09 03:45:34;;;;;;;37.97;27.20;;;6.90;99.90;;;;;;5030050;28;20996;-59
2021/03/09 03:48:00;;;;;;;42.63;27.73;;;7.00;99.90;;;;;;5023482;28;20108;-60
2021/03/09 03:50:27;;;;;;;39.47;26.02;;;7.10;99.90;;;;;;5012765;28;20103;-60
2021/03/09 03:53:07;;;;;;;41.13;26.85;;;7.00;99.90;;;;;;5023881;28;20029;-60
2021/03/09 03:55:54;;;;;;;53.28;28.30;;;6.90;99.90;;;;;;5013886;28;20034;-61
2021/03/09 03:58:43;;;;;;;41.78;28.42;;;7.00;99.90;;;;;;5021948;28;20030;-60
2021/03/09 04:01:11;;;;;;;41.72;27.88;;;7.00;99.90;;;;;;5015554;28;20495;-60
2021/03/09 04:03:38;;;;;;;45.05;29.15;;;7.10;99.90;;;;;;5021846;28;20029;-60
2021/03/09 04:06:06;;;;;;;46.70;29.17;;;7.10;99.90;;;;;;5015534;28;20060;-60
2021/03/09 04:08:38;;;;;;;41.70;28.35;;;7.00;99.90;;;;;;5021825;28;20049;-60
2021/03/09 04:11:05;;;;;;;43.42;28.80;;;7.20;99.90;;;;;;5015556;28;20529;-60
2021/03/09 04:13:33;;;;;;;46.50;29.92;;;7.10;99.90;;;;;;5021663;28;20049;-60
2021/03/09 04:16:01;;;;;;;44.40;30.08;;;7.10;99.90;;;;;;5015443;28;20029;-60
2021/03/09 04:18:29;;;;;;;41.85;27.83;;;7.20;99.90;;;;;;5021756;28;20117;-60
2021/03/09 04:20:57;;;;;;;43.65;29.60;;;7.20;99.90;;;;;;5015235;28;20018;-60
2021/03/09 04:23:24;;;;;;;47.72;30.33;;;7.00;99.90;;;;;;5021384;28;20168;-60
2021/03/09 04:25:52;;;;;;;44.40;29.88;;;7.00;99.90;;;;;;5015396;28;20053;-60
2021/03/09 04:28:18;;;;;;;51.72;30.88;;;7.10;99.90;;;;;;5021617;28;20018;-60
2021/03/09 04:30:44;;;;;;;51.03;30.55;;;7.00;99.90;;;;;;5014941;28;20061;-60
2021/03/09 04:33:11;;;;;;;47.47;30.17;;;7.20;99.90;;;;;;5021088;28;20026;-60
2021/03/09 04:35:37;;;;;;;48.80;31.20;;;7.00;99.90;;;;;;5024005;28;20033;-60
2021/03/09 04:38:03;;;;;;;44.72;31.10;;;7.10;99.90;;;;;;5022460;28;20018;-60
2021/03/09 04:40:31;;;;;;;44.50;29.58;;;7.20;99.90;;;;;;5013341;28;20105;-60
2021/03/09 04:42:57;;;;;;;45.45;30.08;;;7.10;99.90;;;;;;5021273;28;20112;-61
2021/03/09 04:45:23;;;;;;;47.70;31.33;;;7.00;99.90;;;;;;5031571;28;20028;-60
2021/03/09 04:47:48;;;;;;;50.47;30.05;;;7.00;99.90;;;;;;5023267;28;20030;-59
2021/03/09 04:50:16;;;;;;;46.70;30.73;;;7.00;99.90;;;;;;5012525;28;20030;-60
2021/03/09 04:52:46;;;;;;;52.75;32.08;;;7.00;99.90;;;;;;5019569;28;20088;-60
2021/03/09 04:55:17;;;;;;;46.92;30.27;;;6.90;99.90;;;;;;5031328;28;20053;-59
2021/03/09 04:57:43;;;;;;;47.97;30.95;;;6.90;99.90;;;;;;5020175;28;20029;-60
2021/03/09 05:00:12;;;;;;;47.78;31.90;;;6.90;99.90;;;;;;5032213;28;20026;-59
2021/03/09 05:02:38;;;;;;;44.50;32.08;;;6.80;99.90;;;;;;5023639;28;20116;-60
2021/03/09 05:05:04;;;;;;;43.88;29.75;;;6.70;99.90;;;;;;5012127;28;20136;-60
2021/03/09 05:07:30;;;;;;;47.42;29.65;;;6.80;99.90;;;;;;5023042;28;20545;-60
2021/03/09 05:09:55;;;;;;;46.72;30.40;;;6.70;99.90;;;;;;5011938;28;20121;-59
2021/03/09 05:12:21;;;;;;;43.55;29.85;;;6.60;99.90;;;;;;5023000;28;20116;-60
2021/03/09 05:14:47;;;;;;;51.03;30.58;;;6.60;99.90;;;;;;5012357;28;20057;-60
2021/03/09 05:17:12;;;;;;;51.15;30.48;;;6.60;99.90;;;;;;5021769;28;20038;-60
2021/03/09 05:19:38;;;;;;;41.90;29.77;;;6.50;99.90;;;;;;5013432;28;20053;-60
2021/03/09 05:22:04;;;;;;;49.28;30.02;;;6.40;99.90;;;;;;5020329;28;20030;-60
2021/03/09 05:24:30;;;;;;;48.80;30.15;;;6.40;99.90;;;;;;5014481;28;20096;-60
2021/03/09 05:26:55;;;;;;;44.58;30.33;;;6.50;99.90;;;;;;5019377;28;20033;-60
2021/03/09 05:29:21;;;;;;;48.72;30.38;;;6.30;99.90;;;;;;5015496;28;20025;-60
2021/03/09 05:31:47;;;;;;;49.05;30.63;;;6.30;99.90;;;;;;5017865;28;20040;-61
2021/03/09 05:34:12;;;;;;;48.85;30.02;;;6.20;99.90;;;;;;5018555;28;20034;-60
2021/03/09 05:36:38;;;;;;;40.25;29.45;;;6.30;99.90;;;;;;5025036;28;20063;-60
2021/03/09 05:39:04;;;;;;;43.70;30.42;;;6.30;99.90;;;;;;5017716;28;20113;-59
2021/03/09 05:41:30;;;;;;;53.90;29.73;;;6.20;99.90;;;;;;5015465;28;20083;-60
2021/03/09 05:43:56;;;;;;;47.10;29.83;;;6.10;99.90;;;;;;5027806;28;20030;-60
2021/03/09 05:46:22;;;;;;;42.65;29.35;;;6.20;99.90;;;;;;5024919;28;20552;-60
2021/03/09 05:48:48;;;;;;;46.38;28.50;;;6.20;99.90;;;;;;5019826;28;20033;-63
2021/03/09 05:51:14;;;;;;;42.42;28.20;;;6.10;99.90;;;;;;5013855;28;20033;-60
2021/03/09 05:53:40;;;;;;;44.75;30.80;;;6.20;99.90;;;;;;5019986;28;20502;-59
2021/03/09 05:56:06;;;;;;;43.08;28.23;;;5.90;99.90;;;;;;5013680;28;20022;-60
2021/03/09 05:58:33;;;;;;;45.75;28.70;;;6.00;99.90;;;;;;5020020;28;20041;-60
2021/03/09 06:00:59;;;;;;;44.67;29.63;;;6.00;99.90;;;;;;5013701;28;20431;-60
2021/03/09 06:03:27;;;;;;;42.63;29.02;;;6.00;99.90;;;;;;5019978;28;20494;-59
2021/03/09 06:05:53;;;;;;;47.33;30.77;;;6.00;99.90;;;;;;5012827;28;20135;-60
2021/03/09 06:08:19;;;;;;;48.38;29.77;;;5.80;99.90;;;;;;5019831;28;20431;-60
2021/03/09 06:10:45;;;;;;;45.45;28.60;;;5.80;99.90;;;;;;5013074;28;20621;-60
2021/03/09 06:13:33;;;;;;;48.75;30.77;;;5.80;99.90;;;;;;5019913;28;20138;-60
2021/03/09 06:15:59;;;;;;;47.95;30.10;;;5.80;99.90;;;;;;5023936;28;20025;-60
2021/03/09 06:18:25;;;;;;;49.20;29.83;;;5.70;99.90;;;;;;5019780;28;20056;-60
2021/03/09 06:21:12;;;;;;;45.42;28.55;;;5.80;99.90;;;;;;5013254;28;20029;-59
2021/03/09 06:23:39;;;;;;;52.15;31.30;;;5.60;99.90;;;;;;5019599;28;20613;-60
2021/03/09 06:26:40;;;;;;;54.97;31.85;;;5.70;99.90;;;;;;5013191;28;20052;-60
2021/03/09 06:29:13;;;;;;;49.72;29.25;;;5.60;99.90;;;;;;5024639;28;20033;-60
2021/03/09 06:32:03;;;;;;;47.15;29.10;;;5.60;99.90;;;;;;5024064;28;20033;-60
2021/03/09 06:34:31;;;;;;;52.70;28.90;;;5.50;99.90;;;;;;5014518;28;20502;-61
2021/03/09 06:37:35;;;;;;;40.60;26.45;;;5.30;99.90;;;;;;5024163;28;20449;-61
2021/03/09 06:40:06;;;;;;;43.58;25.80;;;5.60;99.90;;;;;;5013103;28;20064;-60
2021/03/09 06:42:37;;;;;;;37.35;25.65;;;5.60;99.90;;;;;;5022987;28;20030;-60
2021/03/09 06:45:07;;;;;;;37.35;25.60;;;5.50;99.90;;;;;;5028842;28;20568;-60
2021/03/09 06:47:36;;;;;;;44.35;27.65;;;5.50;99.90;;;;;;5022698;28;20045;-60
2021/03/09 06:50:13;;;;;;;44.13;25.15;;;5.40;99.90;;;;;;5011864;28;20030;-60
2021/03/09 06:52:41;;;;;;;39.20;26.15;;;5.50;99.90;;;;;;5021458;28;20033;-60
2021/03/09 06:55:12;;;;;;;35.35;25.65;;;5.50;99.90;;;;;;5018678;28;20034;-60
2021/03/09 06:57:40;;;;;;;39.45;25.13;;;5.40;99.90;;;;;;5028283;28;20047;-60
2021/03/09 07:00:09;;;;;;;38.75;25.00;;;5.30;99.90;;;;;;5028819;28;20490;-62
2021/03/09 07:02:36;;;;;;;35.72;25.10;;;5.30;99.90;;;;;;5027590;28;20109;-60
2021/03/09 07:05:04;;;;;;;38.00;24.92;;;5.40;99.90;;;;;;5029334;28;20126;-60
2021/03/09 07:07:32;;;;;;;38.08;25.27;;;5.40;99.90;;;;;;5025886;28;20068;-60
2021/03/09 07:10:03;;;;;;;41.08;25.40;;;5.50;99.90;;;;;;5028577;28;20104;-61
2021/03/09 07:12:29;;;;;;;37.42;25.13;;;5.50;99.90;;;;;;5027264;28;20021;-61
2021/03/09 07:14:55;;;;;;;36.22;25.50;;;5.50;99.90;;;;;;5028998;28;20060;-61
2021/03/09 07:17:29;;;;;;;41.78;25.80;;;5.50;99.90;;;;;;5026068;28;20040;-61
2021/03/09 07:19:56;;;;;;;39.30;25.20;;;5.50;99.90;;;;;;5028015;28;20067;-60
2021/03/09 07:22:24;;;;;;;40.10;25.63;;;5.60;99.90;;;;;;5026732;28;20133;-60
2021/03/09 07:25:12;;;;;;;41.28;25.25;;;5.70;99.90;;;;;;5030080;28;20024;-60
2021/03/09 07:27:44;;;;;;;41.45;25.30;;;5.70;99.90;;;;;;5023491;28;20037;-60
2021/03/09 07:30:12;;;;;;;41.47;26.40;;;5.80;99.90;;;;;;5030345;28;20056;-60
2021/03/09 07:32:45;;;;;;;40.08;25.48;;;5.90;99.90;;;;;;5026155;28;20033;-61
2021/03/09 07:35:11;;;;;;;43.50;25.42;;;5.90;99.90;;;;;;5022992;28;20390;-60
2021/03/09 07:37:39;;;;;;;38.70;23.27;;;6.00;99.90;;;;;;5020131;28;20053;-60
2021/03/09 07:40:08;;;;;;;43.85;26.00;;;5.90;99.90;;;;;;5009518;28;20026;-60
2021/03/09 07:42:34;;;;;;;41.33;24.15;;;6.00;99.90;;;;;;5020823;28;20025;-61
2021/03/09 07:45:02;;;;;;;39.10;24.55;;;6.10;99.90;;;;;;5027495;28;20040;-61
2021/03/09 07:47:29;;;;;;;38.08;25.80;;;6.20;99.90;;;;;;5022628;28;20417;-59
2021/03/09 07:49:55;;;;;;;37.50;25.15;;;6.20;99.90;;;;;;5009055;28;20096;-60
2021/03/09 07:52:23;;;;;;;33.83;25.60;;;6.20;99.90;;;;;;5018331;28;20041;-60
2021/03/09 07:55:04;;;;;;;38.35;25.75;;;6.40;99.90;;;;;;5008790;28;20609;-59
2021/03/09 07:57:30;;;;;;;40.63;25.35;;;6.20;99.90;;;;;;5019712;28;20064;-61
2021/03/09 08:00:00;;;;;;;47.78;25.42;;;6.40;99.90;;;;;;5008621;28;20057;-59
2021/03/09 08:02:41;;;;;;;38.38;25.65;;;6.50;99.90;;;;;;5019766;28;20171;-60
2021/03/09 08:05:09;;;;;;;38.05;24.00;;;6.60;99.90;;;;;;5011948;28;20048;-61
2021/03/09 08:07:51;;;;;;;33.85;24.35;;;6.50;99.90;;;;;;5021486;28;20029;-59
2021/03/09 08:10:29;;;;;;;34.97;25.42;;;6.60;99.90;;;;;;5019907;28;20053;-59
2021/03/09 08:12:56;;;;;;;39.80;26.33;;;6.70;99.90;;;;;;5020015;28;20068;-60
2021/03/09 08:15:22;;;;;;;37.22;25.08;;;6.80;99.90;;;;;;5009272;28;20605;-60
2021/03/09 08:17:48;;;;;;;39.63;26.23;;;6.80;99.90;;;;;;5017411;28;20115;-60
2021/03/09 08:20:56;;;;;;;39.05;26.65;;;6.80;99.90;;;;;;5029146;28;20413;-62
2021/03/09 08:23:34;;;;;;;36.38;25.25;;;6.90;99.90;;;;;;5017302;28;20042;-60
2021/03/09 08:26:02;;;;;;;38.92;23.17;;;6.90;99.90;;;;;;5011622;28;20057;-59
2021/03/09 08:28:38;;;;;;;33.72;24.50;;;7.00;99.90;;;;;;5019708;28;20093;-66
2021/03/09 08:31:16;;;;;;;;;;;7.00;99.90;;;;;;5015643;28;20521;-60
2021/03/09 08:33:49;;;;;;;34.72;23.73;;;7.00;99.90;;;;;;5021470;28;19953;-60
2021/03/09 08:36:20;;;;;;;31.00;22.15;;;7.40;99.90;;;;;;5026083;28;20021;-60
2021/03/09 08:41:47;;;;;;;30.88;24.52;;;7.10;99.90;;;;;;5022168;28;20128;-60
2021/03/09 08:44:19;;;;;;;34.10;24.80;;;7.40;99.90;;;;;;5025257;28;20064;-60
2021/03/09 08:46:57;;;;;;;35.92;25.25;;;7.40;99.90;;;;;;5025532;28;20037;-59
2021/03/09 08:49:37;;;;;;;37.60;25.50;;;7.60;99.90;;;;;;5016792;28;20018;-59
2021/03/09 08:52:04;;;;;;;32.50;23.83;;;7.60;99.90;;;;;;5019701;28;20393;-60
2021/03/09 08:54:38;;;;;;;34.80;24.42;;;7.70;99.90;;;;;;5015457;28;20038;-61
2021/03/09 08:57:14;;;;;;;35.63;23.90;;;7.90;99.90;;;;;;5020789;28;20065;-60
2021/03/09 08:59:42;;;;;;;37.90;24.77;;;7.90;99.90;;;;;;5014138;28;20108;-59
2021/03/09 09:02:22;;;;;;;35.85;23.67;;;8.10;99.90;;;;;;5020971;28;20045;-60
2021/03/09 09:04:58;;;;;;;37.65;25.08;;;8.00;99.90;;;;;;5014706;28;20041;-65
2021/03/09 09:07:28;;;;;;;35.63;25.58;;;8.20;99.90;;;;;;5023431;28;20108;-60
2021/03/09 09:10:03;;;;;;;33.53;23.50;;;8.30;99.90;;;;;;5011691;28;20045;-61
2021/03/09 09:12:41;;;;;;;41.90;25.33;;;8.30;99.90;;;;;;5023176;28;20079;-61
2021/03/09 09:15:25;;;;;;;34.38;23.80;;;8.50;99.90;;;;;;5012190;28;20498;-62
2021/03/09 09:17:53;;;;;;;32.40;24.63;;;8.40;99.90;;;;;;5020173;28;20037;-63
2021/03/09 09:20:28;;;;;;;34.33;24.40;;;8.40;99.90;;;;;;5031753;28;20021;-61
2021/03/09 09:22:55;;;;;;;29.70;24.40;;;8.60;99.90;;;;;;5029649;28;20032;-62
2021/03/09 09:25:23;;;;;;;35.55;25.08;;;8.80;99.90;;;;;;5025375;28;20021;-61
2021/03/09 09:27:55;;;;;;;32.47;25.27;;;8.70;99.90;;;;;;5027248;28;20033;-61
2021/03/09 09:30:23;;;;;;;32.15;24.00;;;8.90;99.90;;;;;;5031416;28;20431;-61
2021/03/09 09:32:52;;;;;;;33.03;24.00;;;8.70;99.90;;;;;;5022332;28;20038;-61
2021/03/09 09:35:19;;;;;;;32.63;24.77;;;9.00;99.90;;;;;;5022386;28;20026;-61
2021/03/09 09:37:54;;;;;;;30.48;24.27;;;9.00;99.90;;;;;;5022803;28;20082;-61
2021/03/09 09:40:23;;;;;;;36.00;24.67;;;9.20;99.90;;;;;;5011095;28;20483;-61
2021/03/09 09:43:00;;;;;;;32.38;25.08;;;9.10;99.90;;;;;;5022761;28;20033;-61
2021/03/09 09:45:27;;;;;;;31.10;24.30;;;9.20;99.90;;;;;;5011537;28;20486;-61
2021/03/09 09:47:54;;;;;;;33.03;23.63;;;9.80;99.90;;;;;;5022336;28;20514;-61
2021/03/09 09:50:20;;;;;;;33.95;23.05;;;9.60;99.90;;;;;;5011158;28;20579;-62
2021/03/09 09:52:59;;;;;;;31.05;23.55;;;9.60;99.90;;;;;;5022550;28;20080;-62
2021/03/09 09:55:29;;;;;;;33.08;24.15;;;9.60;99.90;;;;;;5011111;28;20564;-61
2021/03/09 09:57:57;;;;;;;35.15;24.00;;;9.70;99.90;;;;;;5022066;28;20034;-61
2021/03/09 10:00:25;;;;;;;33.85;25.38;;;9.90;99.90;;;;;;5011059;28;20569;-62
2021/03/09 10:03:07;;;;;;;31.38;23.90;;;10.00;99.90;;;;;;5024864;28;20075;-61
2021/03/09 10:05:33;;;;;;;33.00;23.50;;;10.10;99.90;;;;;;5028806;28;20124;-61
2021/03/09 10:07:59;;;;;;;32.63;24.52;;;10.00;99.90;;;;;;5021559;28;20037;-61
2021/03/09 10:10:24;;;;;;;34.25;24.00;;;10.20;99.90;;;;;;5029901;28;20485;-61
2021/03/09 10:12:50;;;;;;;31.77;22.63;;;10.20;99.90;;;;;;5019038;28;20047;-60
2021/03/09 10:15:16;;;;;;;30.25;23.35;;;10.20;99.90;;;;;;5030829;28;20101;-62
2021/03/09 10:17:42;;;;;;;33.38;23.42;;;10.30;99.90;;;;;;5022844;28;20025;-60
2021/03/09 10:20:24;;;;;;;32.67;23.90;;;10.20;99.90;;;;;;5028927;28;20032;-61
2021/03/09 10:23:01;;;;;;;30.05;23.83;;;10.40;99.90;;;;;;5021933;28;20041;-60
2021/03/09 10:25:27;;;;;;;32.03;23.63;;;10.50;99.90;;;;;;5010865;28;20088;-60
2021/03/09 10:28:04;;;;;;;28.50;23.38;;;10.80;99.90;;;;;;5021484;28;20027;-61
2021/03/09 10:30:41;;;;;;;32.45;24.83;;;10.60;99.90;;;;;;5011185;28;20061;-60
2021/03/09 10:33:11;;;;;;;31.05;22.75;;;10.90;99.90;;;;;;5019918;28;20033;-61
2021/03/09 10:36:03;;;;;;;34.28;23.67;;;11.00;99.90;;;;;;5028307;28;20104;-60
2021/03/09 10:38:29;;;;;;;28.45;23.70;;;10.60;99.90;;;;;;5018383;28;20032;-61
2021/03/09 10:40:55;;;;;;;31.70;24.75;;;10.60;99.90;;;;;;5027896;28;20018;-63
2021/03/09 10:43:41;;;;;;;33.08;24.92;;;11.00;99.90;;;;;;5023513;28;20048;-61
2021/03/09 10:46:06;;;;;;;27.80;23.37;;;11.20;99.90;;;;;;5026718;28;20017;-61
2021/03/09 10:48:32;;;;;;;34.20;24.45;;;11.00;99.90;;;;;;5018886;28;20256;-61
2021/03/09 10:50:57;;;;;;;30.60;24.75;;;11.00;99.90;;;;;;5012845;28;20037;-62
2021/03/09 10:53:23;;;;;;;31.08;24.80;;;11.00;99.90;;;;;;5025213;28;20513;-61
2021/03/09 10:55:49;;;;;;;32.55;24.63;;;11.20;99.90;;;;;;5027737;28;20049;-61
2021/03/09 10:58:14;;;;;;;27.45;21.25;;;11.10;99.90;;;;;;5025285;28;20033;-61
2021/03/09 11:00:40;;;;;;;33.65;23.65;;;10.80;99.90;;;;;;5028129;28;20025;-61
2021/03/09 11:03:06;;;;;;;32.60;24.38;;;11.20;99.90;;;;;;5020540;28;20071;-61
2021/03/09 11:05:31;;;;;;;27.20;22.58;;;11.40;99.90;;;;;;5010160;28;20077;-61
2021/03/09 11:07:57;;;;;;;29.73;23.52;;;11.50;99.90;;;;;;5021121;28;20395;-61
2021/03/09 11:10:23;;;;;;;29.38;22.50;;;11.90;99.90;;;;;;5029472;28;20014;-61
2021/03/09 11:12:48;;;;;;;32.80;24.35;;;11.90;99.90;;;;;;5034012;28;20083;-61
2021/03/09 11:15:14;;;;;;;29.75;25.10;;;12.00;99.90;;;;;;5030937;28;20032;-61
2021/03/09 11:17:40;;;;;;;33.08;25.23;;;11.70;99.90;;;;;;5023284;28;20049;-61
2021/03/09 11:20:07;;;;;;;27.90;22.42;;;12.10;99.90;;;;;;5029193;28;20075;-62
2021/03/09 11:22:33;;;;;;;30.30;22.55;;;12.20;99.90;;;;;;5027955;28;20060;-62
2021/03/09 11:24:59;;;;;;;27.88;23.98;;;12.00;99.90;;;;;;5029334;28;20034;-62
2021/03/09 11:27:25;;;;;;;32.85;24.40;;;12.00;99.90;;;;;;5023517;28;20037;-62
2021/03/09 11:29:51;;;;;;;29.25;24.42;;;12.30;99.90;;;;;;5010456;28;20571;-62
2021/03/09 11:32:16;;;;;;;35.63;25.55;;;12.10;99.90;;;;;;5018858;28;20171;-62
2021/03/09 11:34:42;;;;;;;33.22;23.25;;;12.30;99.90;;;;;;5017087;28;20562;-61
2021/03/09 11:37:08;;;;;;;33.03;25.05;;;12.50;99.90;;;;;;5027622;28;20029;-62
2021/03/09 11:39:33;;;;;;;32.95;24.23;;;12.20;99.90;;;;;;5012679;28;20100;-62
2021/03/09 11:41:59;;;;;;;31.67;23.52;;;12.00;99.90;;;;;;5016609;28;20021;-61
2021/03/09 11:44:25;;;;;;;30.67;23.85;;;12.20;99.90;;;;;;5028912;28;20026;-61
2021/03/09 11:46:51;;;;;;;27.08;24.17;;;12.20;99.90;;;;;;5022774;28;20494;-62
2021/03/09 11:49:17;;;;;;;29.38;23.75;;;12.50;99.90;;;;;;5029175;28;20032;-61
2021/03/09 11:51:43;;;;;;;29.73;25.70;;;12.20;99.90;;;;;;5024514;28;20029;-62
2021/03/09 11:54:09;;;;;;;29.63;23.30;;;12.50;99.90;;;;;;5023685;28;20037;-62
2021/03/09 11:56:35;;;;;;;27.25;23.85;;;12.80;99.90;;;;;;5018026;28;20084;-61
2021/03/09 11:59:01;;;;;;;28.08;22.73;;;13.10;99.90;;;;;;5016947;28;20116;-62
2021/03/09 12:01:26;;;;;;;24.67;21.75;;;13.20;99.90;;;;;;5019677;28;20030;-61
2021/03/09 12:03:53;;;;;;;27.83;22.92;;;13.40;99.90;;;;;;5020899;28;20026;-62
2021/03/09 12:06:20;;;;;;;28.10;23.85;;;13.30;99.90;;;;;;5015762;28;20471;-61
2021/03/09 12:08:46;;;;;;;29.95;24.38;;;13.30;99.90;;;;;;5026501;28;20072;-62
2021/03/09 12:11:12;;;;;;;29.92;24.30;;;13.20;99.90;;;;;;5028835;28;20021;-61
2021/03/09 12:13:38;;;;;;;26.40;21.98;;;13.60;99.90;;;;;;5021941;28;20037;-63
2021/03/09 12:16:04;;;;;;;25.25;21.25;;;13.40;99.50;;;;;;5015686;28;20025;-61
2021/03/09 12:18:30;;;;;;;24.35;20.30;;;13.30;99.00;;;;;;5021899;28;20054;-61
2021/03/09 12:20:56;;;;;;;25.25;22.55;;;13.50;99.90;;;;;;5015505;28;20108;-61
2021/03/09 12:23:23;;;;;;;28.30;23.52;;;13.70;99.90;;;;;;5021686;28;20056;-62
2021/03/09 12:25:49;;;;;;;28.73;22.80;;;13.90;99.90;;;;;;5029820;28;20025;-61
2021/03/09 12:28:15;;;;;;;26.55;22.90;;;13.50;99.70;;;;;;5022465;28;20022;-61
2021/03/09 12:30:41;;;;;;;24.73;21.90;;;14.10;99.90;;;;;;5013286;28;20026;-63
2021/03/09 12:33:06;;;;;;;28.05;22.85;;;14.30;98.60;;;;;;5023604;28;20069;-62
2021/03/09 12:35:32;;;;;;;25.75;21.88;;;13.80;98.80;;;;;;5024793;28;20032;-61
2021/03/09 12:37:57;;;;;;;25.00;21.40;;;13.80;98.50;;;;;;5023559;28;20745;-62
2021/03/09 12:40:23;;;;;;;27.38;22.20;;;14.20;98.50;;;;;;5018334;28;20125;-63
2021/03/09 12:42:49;;;;;;;23.67;19.20;;;13.70;97.60;;;;;;5026645;28;20572;-62
2021/03/09 12:45:15;;;;;;;22.20;19.67;;;14.00;96.60;;;;;;5030817;28;20102;-62
2021/03/09 12:47:41;;;;;;;25.13;20.98;;;14.40;97.30;;;;;;5024442;28;20413;-62
2021/03/09 12:50:07;;;;;;;24.48;20.55;;;14.60;97.70;;;;;;5012666;28;20152;-63